Novato, CA (94945)

7:28 AM PST on January 24, 2017 (GMT -0800)
| | Change Station
Active Advisory: Flood Warning

Elev -9999 ft 0.00 °N, 0.00 °E | Updated 13 minutes ago

Overcast
Overcast
°F
Feels Like °F
N
Wind Variable Wind from North
Gusts mph

Today
High -- | Low -- °F
--% Chance of Precip.
Yesterday
High -- | Low -- °F
Precip. -- in
Pressure 30.04 in
Visibility 10.0 miles
Clouds Few 4100 ft
Few 7000 ft
Mostly Cloudy 12000 ft
Dew Point Not available.
Humidity Not available.
Rainfall --
Snow Depth Not available.
7:20 AM 5:24 PM
Waning Crescent, 11% visible
METAR KO69 241515Z AUTO 00000KT 10SM FEW041 FEW070 BKN120 04/04 A3004 RMK AO1
Pressure 30.04 in
Visibility 10.0 miles
Clouds Few 4100 ft
Few 7000 ft
Mostly Cloudy 12000 ft
Dew Point Not available.
Humidity Not available.
Rainfall --
Snow Depth Not available.
7:20 AM 5:24 PM
Waning Crescent, 11% visible
METAR KO69 241515Z AUTO 00000KT 10SM FEW041 FEW070 BKN120 04/04 A3004 RMK AO1

Get Your Daily Forecast Email!

Thanks for signing up!

Be on the lookout for a verification email in your inbox.

You'll start receiving the daily forecast at 8 AM.

×

10-Day Weather Forecast

Almanac

Astronomy

Jan. 24, 2017 Rise Set
Actual Time
Civil Twilight
Nautical Twilight
Astronomical Twilight
Moon
Length of Visible Light
Length of Day
Tomorrow will be .
, % of the Moon is Illuminated

Today's Extremes

State Highs State Lows

Community

WunderPhotos

Upload Photos

1,962,540 photos uploaded!

WunderBlog® & News

Nearby

Air Quality

  Air Quality AQ Index Pollutant
Not available.

Snow Depth

Station Depth Elevation

Earthquake Activity

City Distance Mag. Time & Date
Minimum magnitude displayed is 2.5.

Coastal Water Temperatures

Place Temperature

Stations

Nearby Weather Stations

Station Location Temp. Windchill Dew Point Humidity Wind Precip. Elev Updated Type
                   

Watches & Warnings

Flood Warning
Issued: 7:15 AM PST Jan. 24, 2017 – National Weather Service

... The Flood Warning has been cancelled for central Sonoma County...

Flood waters have receded in both the Russian River and mark West
Creek. Currently, water levels at the mark West Creek near Mirabel
Heights are still just above minor flood stage, but impacts are few
and water levels should recede below minor flood stage later toady.
Conditions are no longer expected to pose a threat to life or
property. Please continue to heed any Road closures.

Lat... Lon 3850 12285 3850 12283 3851 12281 3849 12280
      3847 12283 3844 12282 3845 12285 3848 12286
      3848 12288 3851 12288


Mws